createdAt,value
2018-12-17T00:00:10.421Z,23.07
2018-12-17T00:02:39.157Z,24.80
2018-12-17T00:05:07.651Z,25.03
2018-12-17T00:07:36.038Z,24.17
2018-12-17T00:10:05.513Z,24.37
2018-12-17T00:12:34.049Z,22.90
2018-12-17T00:15:02.464Z,23.67
2018-12-17T00:17:30.821Z,24.03
2018-12-17T00:19:59.234Z,24.67
2018-12-17T00:22:27.624Z,25.70
2018-12-17T00:24:56.019Z,25.43
2018-12-17T00:27:24.803Z,26.70
2018-12-17T00:29:53.224Z,25.87
2018-12-17T00:32:21.541Z,25.60
2018-12-17T00:34:49.933Z,25.03
2018-12-17T00:37:18.372Z,25.43
2018-12-17T00:39:46.751Z,25.43
2018-12-17T00:42:15.247Z,25.97
2018-12-17T00:44:44.178Z,24.17
2018-12-17T00:47:13.298Z,24.07
2018-12-17T00:49:42.334Z,24.97
2018-12-17T00:52:10.769Z,25.83
2018-12-17T00:54:39.155Z,24.83
2018-12-17T00:57:07.472Z,26.00
2018-12-17T00:59:36.660Z,25.50
2018-12-17T01:02:05.048Z,24.13
2018-12-17T01:04:34.471Z,25.20
2018-12-17T01:07:03.169Z,24.17
2018-12-17T01:09:31.646Z,26.30
2018-12-17T01:12:00.681Z,25.10
2018-12-17T01:14:29.218Z,23.87
2018-12-17T01:16:58.041Z,24.40
2018-12-17T01:19:27.121Z,24.20
2018-12-17T01:21:55.756Z,23.33
2018-12-17T01:24:24.698Z,25.03
2018-12-17T01:26:53.133Z,24.67
2018-12-17T01:29:21.559Z,25.67
2018-12-17T01:31:50.066Z,25.77
2018-12-17T01:34:18.421Z,25.03
2018-12-17T01:36:46.981Z,24.27
2018-12-17T01:39:15.472Z,25.60
2018-12-17T01:41:43.884Z,26.07
2018-12-17T01:44:12.293Z,24.53
2018-12-17T01:46:40.648Z,24.67
2018-12-17T01:49:09.084Z,26.07
2018-12-17T01:51:37.521Z,24.93
2018-12-17T01:54:05.902Z,24.17
2018-12-17T01:56:34.255Z,25.00
2018-12-17T01:59:03.042Z,25.50
2018-12-17T02:01:31.655Z,25.67
2018-12-17T02:04:00.073Z,23.87
2018-12-17T02:06:28.392Z,25.73
2018-12-17T02:08:57.157Z,26.33
2018-12-17T02:11:26.371Z,24.83
2018-12-17T02:13:54.742Z,25.53
2018-12-17T02:16:23.124Z,25.60
2018-12-17T02:18:52.038Z,25.50
2018-12-17T02:21:20.464Z,24.80
2018-12-17T02:23:48.772Z,24.60
2018-12-17T02:26:17.089Z,24.93
2018-12-17T02:28:46.581Z,25.90
2018-12-17T02:31:15.064Z,25.63
2018-12-17T02:33:43.376Z,25.90
2018-12-17T02:36:12.853Z,25.57
2018-12-17T02:38:41.396Z,25.23
2018-12-17T02:41:10.533Z,24.93
2018-12-17T02:43:38.862Z,25.67
2018-12-17T02:46:07.185Z,25.23
2018-12-17T02:48:35.498Z,24.63
2018-12-17T02:51:04.992Z,24.63
2018-12-17T02:53:33.330Z,25.00
2018-12-17T02:56:01.623Z,25.37
2018-12-17T02:58:30.071Z,23.87
2018-12-17T03:00:58.390Z,24.47
2018-12-17T03:03:26.749Z,27.00
2018-12-17T03:05:55.123Z,27.57
2018-12-17T03:08:23.493Z,25.43
2018-12-17T03:10:52.040Z,25.23
2018-12-17T03:13:20.377Z,25.13
2018-12-17T03:15:48.926Z,23.70
2018-12-17T03:18:17.269Z,24.50
2018-12-17T03:20:45.644Z,24.87
2018-12-17T03:23:14.002Z,26.57
2018-12-17T03:25:42.342Z,26.30
2018-12-17T03:28:10.649Z,25.70
2018-12-17T03:30:38.989Z,26.53
2018-12-17T03:33:07.288Z,25.93
2018-12-17T03:35:35.598Z,25.10
2018-12-17T03:38:03.922Z,27.00
2018-12-17T03:40:32.258Z,26.20
2018-12-17T03:43:01.065Z,26.03
2018-12-17T03:45:29.423Z,25.43
2018-12-17T03:47:58.463Z,25.40
2018-12-17T03:50:26.804Z,24.90
2018-12-17T03:52:55.574Z,25.87
2018-12-17T03:55:24.047Z,26.27
2018-12-17T03:57:52.413Z,25.93
2018-12-17T04:00:20.853Z,25.03
2018-12-17T04:02:49.184Z,25.80
2018-12-17T04:05:17.925Z,24.73
2018-12-17T04:07:46.364Z,25.53
2018-12-17T04:10:14.679Z,26.20
2018-12-17T04:12:43.734Z,26.57
2018-12-17T04:15:12.168Z,25.10
2018-12-17T04:17:40.483Z,23.70
2018-12-17T04:20:09.158Z,24.50
2018-12-17T04:22:37.788Z,25.40
2018-12-17T04:25:06.299Z,23.97
2018-12-17T04:27:34.941Z,24.13
2018-12-17T04:30:03.677Z,24.40
2018-12-17T04:32:31.968Z,24.33
2018-12-17T04:35:00.288Z,24.10
2018-12-17T04:37:28.654Z,25.23
2018-12-17T04:39:56.975Z,24.37
2018-12-17T04:42:25.294Z,24.23
2018-12-17T04:44:53.633Z,24.73
2018-12-17T04:47:21.979Z,24.80
2018-12-17T04:49:50.300Z,25.33
2018-12-17T04:52:18.615Z,26.53
2018-12-17T04:54:46.963Z,24.87
2018-12-17T04:57:15.288Z,25.13
2018-12-17T04:59:43.552Z,23.37
2018-12-17T05:02:11.882Z,27.50
2018-12-17T05:04:40.136Z,25.33
2018-12-17T05:07:08.508Z,26.83
2018-12-17T05:09:36.911Z,25.93
2018-12-17T05:12:05.574Z,26.27
2018-12-17T05:14:34.033Z,26.90
2018-12-17T05:17:02.317Z,27.33
2018-12-17T05:19:30.621Z,26.40
2018-12-17T05:21:59.690Z,27.57
2018-12-17T05:24:28.030Z,27.07
2018-12-17T05:26:56.341Z,26.40
2018-12-17T05:29:24.667Z,27.03
2018-12-17T05:31:53.723Z,25.57
2018-12-17T05:34:22.026Z,26.40
2018-12-17T05:36:50.564Z,26.53
2018-12-17T05:39:18.876Z,24.50
2018-12-17T05:41:47.209Z,24.50
2018-12-17T05:44:15.551Z,25.70
2018-12-17T05:46:43.837Z,25.50
2018-12-17T05:49:12.162Z,26.83
2018-12-17T05:51:41.037Z,25.20
2018-12-17T05:54:09.367Z,26.17
2018-12-17T05:56:37.732Z,25.30
2018-12-17T05:59:06.048Z,25.57
2018-12-17T06:01:34.381Z,25.63
2018-12-17T06:04:02.708Z,24.70
2018-12-17T06:06:31.004Z,26.10
2018-12-17T06:08:59.316Z,25.10
2018-12-17T06:11:28.361Z,26.00
2018-12-17T06:13:56.770Z,25.73
2018-12-17T06:16:25.194Z,25.80
2018-12-17T06:18:53.519Z,25.03
2018-12-17T06:21:22.684Z,24.60
2018-12-17T06:23:51.018Z,25.73
2018-12-17T06:26:19.321Z,27.40
2018-12-17T06:28:47.690Z,27.13
2018-12-17T06:31:15.994Z,25.80
2018-12-17T06:33:44.269Z,26.03
2018-12-17T06:36:12.775Z,25.40
2018-12-17T06:38:41.228Z,25.57
2018-12-17T06:41:10.431Z,26.43
2018-12-17T06:43:38.759Z,26.40
2018-12-17T06:46:07.031Z,25.93
2018-12-17T06:48:35.371Z,25.27
2018-12-17T06:51:03.856Z,25.27
2018-12-17T06:53:32.201Z,26.37
2018-12-17T06:56:00.523Z,25.37
2018-12-17T06:58:29.313Z,25.07
2018-12-17T07:00:57.755Z,26.30
2018-12-17T07:03:26.866Z,26.77
2018-12-17T07:05:55.199Z,25.90
2018-12-17T07:08:23.505Z,24.60
2018-12-17T07:10:52.093Z,26.17
2018-12-17T07:13:21.580Z,25.77
2018-12-17T07:15:49.928Z,26.23
2018-12-17T07:18:18.354Z,24.60
2018-12-17T07:20:46.729Z,27.20
2018-12-17T07:23:15.288Z,27.33
2018-12-17T07:25:44.237Z,25.80
2018-12-17T07:28:12.573Z,25.93
2018-12-17T07:30:40.978Z,26.03
2018-12-17T07:33:10.872Z,25.63
2018-12-17T07:35:39.140Z,25.93
2018-12-17T07:38:07.522Z,26.50
2018-12-17T07:40:36.360Z,26.40
2018-12-17T07:43:04.920Z,27.03
2018-12-17T07:45:33.785Z,24.43
2018-12-17T07:48:03.395Z,26.47
2018-12-17T07:50:31.800Z,27.00
2018-12-17T07:53:00.163Z,25.57
2018-12-17T07:55:28.499Z,25.60
2018-12-17T07:57:56.913Z,25.73
2018-12-17T08:00:25.440Z,25.67
2018-12-17T08:02:53.864Z,24.83
2018-12-17T08:05:22.951Z,23.97
2018-12-17T08:07:51.323Z,26.10
2018-12-17T08:10:19.720Z,25.03
2018-12-17T08:12:48.586Z,24.77
2018-12-17T08:15:16.904Z,24.73
2018-12-17T08:17:45.209Z,25.17
2018-12-17T08:20:13.616Z,24.33
2018-12-17T08:22:42.819Z,26.67
2018-12-17T08:25:11.331Z,25.80
2018-12-17T08:27:40.552Z,25.90
2018-12-17T08:30:09.397Z,24.43
2018-12-17T08:32:37.749Z,26.50
2018-12-17T08:35:06.201Z,25.53
2018-12-17T08:37:34.588Z,25.37
2018-12-17T08:40:03.115Z,25.93
2018-12-17T08:42:31.465Z,25.60
2018-12-17T08:44:59.822Z,25.40
2018-12-17T08:47:28.176Z,24.60
2018-12-17T08:49:56.503Z,25.07
2018-12-17T08:52:24.803Z,25.83
2018-12-17T08:54:53.218Z,25.37
2018-12-17T08:57:21.720Z,25.87
2018-12-17T08:59:50.055Z,24.80
2018-12-17T09:02:18.408Z,24.50
2018-12-17T09:04:46.890Z,25.20
2018-12-17T09:07:15.690Z,24.23
2018-12-17T09:09:44.082Z,25.27
2018-12-17T09:12:12.798Z,24.03
2018-12-17T09:14:41.324Z,24.10
2018-12-17T09:17:09.769Z,24.30
2018-12-17T09:19:38.146Z,24.40
2018-12-17T09:22:06.437Z,23.73
2018-12-17T09:24:34.766Z,23.83
2018-12-17T09:27:04.197Z,23.53
2018-12-17T09:29:32.594Z,22.70
2018-12-17T09:32:00.950Z,23.70
2018-12-17T09:34:29.278Z,24.30
2018-12-17T09:36:57.613Z,24.97
2018-12-17T09:39:25.970Z,23.63
2018-12-17T09:41:54.319Z,23.77
2018-12-17T09:44:22.653Z,25.53
2018-12-17T09:46:50.948Z,25.47
2018-12-17T09:49:19.821Z,26.13
2018-12-17T09:51:48.128Z,25.07
2018-12-17T09:54:16.503Z,24.77
2018-12-17T09:56:44.870Z,24.63
2018-12-17T09:59:13.188Z,25.87
2018-12-17T10:01:41.539Z,24.97
2018-12-17T10:04:09.823Z,24.23
2018-12-17T10:06:38.227Z,25.07
2018-12-17T10:09:07.150Z,24.53
2018-12-17T10:11:35.469Z,25.60
2018-12-17T10:14:03.939Z,25.33
2018-12-17T10:16:32.348Z,28.43
2018-12-17T10:19:00.679Z,30.13
2018-12-17T10:21:28.976Z,25.97
2018-12-17T10:23:57.453Z,26.03
2018-12-17T10:26:25.837Z,24.30
2018-12-17T10:28:54.637Z,25.67
2018-12-17T10:31:22.935Z,25.73
2018-12-17T10:33:51.286Z,24.90
2018-12-17T10:36:19.625Z,25.00
2018-12-17T10:38:48.016Z,25.70
2018-12-17T10:41:16.515Z,25.30
2018-12-17T10:43:45.653Z,25.77
2018-12-17T10:46:14.110Z,25.70
2018-12-17T10:48:42.487Z,26.70
2018-12-17T10:51:10.890Z,25.23
2018-12-17T10:53:39.300Z,26.00
2018-12-17T10:56:07.709Z,26.97
2018-12-17T10:58:36.063Z,27.50
2018-12-17T11:01:10.201Z,25.60
2018-12-17T11:03:44.959Z,27.10
2018-12-17T11:06:16.041Z,27.77
2018-12-17T11:08:44.448Z,27.83
2018-12-17T11:11:13.339Z,28.23
2018-12-17T11:13:41.794Z,26.43
2018-12-17T11:16:10.152Z,27.73
2018-12-17T11:18:38.604Z,26.60
2018-12-17T11:21:06.978Z,27.43
2018-12-17T11:23:35.385Z,25.37
2018-12-17T11:26:04.083Z,26.20
2018-12-17T11:28:32.451Z,27.17
2018-12-17T11:31:00.824Z,26.63
2018-12-17T11:33:29.159Z,26.57
2018-12-17T11:35:57.519Z,26.00
2018-12-17T11:38:25.819Z,26.10
2018-12-17T11:40:54.480Z,27.60
2018-12-17T11:43:23.287Z,27.73
2018-12-17T11:45:51.724Z,28.93
2018-12-17T11:48:20.213Z,28.87
2018-12-17T11:50:49.277Z,29.53
2018-12-17T11:53:17.741Z,27.90
2018-12-17T11:55:46.141Z,29.50
2018-12-17T11:58:15.367Z,30.40
2018-12-17T12:00:53.952Z,29.90
2018-12-17T12:03:21.645Z,28.93
2018-12-17T12:05:50.589Z,28.60
2018-12-17T12:08:19.022Z,27.97
2018-12-17T12:10:48.846Z,28.40
2018-12-17T12:13:17.292Z,28.10
2018-12-17T12:15:45.576Z,28.80
2018-12-17T12:18:13.955Z,27.87
2018-12-17T12:20:42.821Z,29.87
2018-12-17T12:23:11.357Z,29.73
2018-12-17T12:25:39.670Z,31.40
2018-12-17T12:28:08.057Z,30.17
2018-12-17T12:30:36.767Z,31.50
2018-12-17T12:33:05.169Z,30.07
2018-12-17T12:35:33.530Z,31.00
2018-12-17T12:38:01.956Z,29.67
2018-12-17T12:40:30.272Z,29.17
2018-12-17T12:42:59.529Z,30.13
2018-12-17T12:45:27.881Z,29.20
2018-12-17T12:47:56.879Z,30.40
2018-12-17T12:50:25.367Z,31.50
2018-12-17T12:52:53.794Z,28.77
2018-12-17T12:55:22.145Z,30.87
2018-12-17T12:57:50.850Z,32.70
2018-12-17T13:00:20.283Z,29.87
2018-12-17T13:02:48.592Z,28.97
2018-12-17T13:05:16.883Z,28.50
2018-12-17T13:07:45.198Z,27.63
2018-12-17T13:10:13.656Z,30.07
2018-12-17T13:12:43.485Z,27.87
2018-12-17T13:15:11.956Z,28.43
2018-12-17T13:17:40.262Z,25.97
2018-12-17T13:20:09.729Z,27.17
2018-12-17T13:22:38.077Z,26.63
2018-12-17T13:25:11.679Z,28.97
2018-12-17T13:27:40.072Z,27.27
2018-12-17T13:30:09.856Z,25.47
2018-12-17T13:32:38.204Z,26.77
2018-12-17T13:35:08.581Z,25.87
2018-12-17T13:37:37.452Z,26.67
2018-12-17T13:40:08.135Z,25.60
2018-12-17T13:42:37.008Z,26.27
2018-12-17T13:45:06.747Z,26.53
2018-12-17T13:47:35.255Z,26.90
2018-12-17T13:50:09.584Z,28.00
2018-12-17T13:52:43.269Z,27.07
2018-12-17T13:55:12.079Z,26.70
2018-12-17T13:57:40.445Z,27.57
2018-12-17T14:00:11.774Z,28.17
2018-12-17T14:02:40.535Z,28.90
2018-12-17T14:05:08.961Z,28.30
2018-12-17T14:07:37.506Z,27.07
2018-12-17T14:10:13.586Z,28.40
2018-12-17T14:12:43.053Z,26.40
2018-12-17T14:15:11.844Z,26.63
2018-12-17T14:17:44.495Z,28.57
2018-12-17T14:20:32.851Z,27.37
2018-12-17T14:23:01.180Z,26.73
2018-12-17T14:25:29.622Z,25.17
2018-12-17T14:27:58.549Z,26.30
2018-12-17T14:30:27.174Z,26.00
2018-12-17T14:32:55.565Z,26.17
2018-12-17T14:35:24.945Z,27.70
2018-12-17T14:37:58.736Z,26.63
2018-12-17T14:40:27.289Z,27.20
2018-12-17T14:45:33.672Z,26.40
2018-12-17T14:48:02.438Z,27.00
2018-12-17T14:50:30.945Z,26.63
2018-12-17T14:53:00.635Z,27.30
2018-12-17T14:55:29.098Z,27.00
2018-12-17T14:57:57.640Z,25.70
2018-12-17T15:00:26.364Z,27.80
2018-12-17T15:02:54.804Z,27.43
2018-12-17T15:05:23.263Z,27.30
2018-12-17T15:07:52.084Z,27.10
2018-12-17T15:10:21.093Z,27.33
2018-12-17T15:12:49.487Z,27.43
2018-12-17T15:15:18.773Z,26.27
2018-12-17T15:17:47.142Z,27.23
2018-12-17T15:20:15.599Z,25.90
2018-12-17T15:22:43.950Z,24.90
2018-12-17T15:25:12.298Z,25.53
2018-12-17T15:30:19.116Z,25.57
2018-12-17T15:32:47.425Z,25.97
2018-12-17T15:35:15.850Z,25.90
2018-12-17T15:37:44.640Z,26.87
2018-12-17T15:40:13.193Z,27.13
2018-12-17T15:42:41.686Z,31.10
2018-12-17T15:45:10.232Z,29.63
2018-12-17T15:47:38.569Z,27.17
2018-12-17T15:50:07.348Z,26.33
2018-12-17T15:52:35.706Z,26.50
2018-12-17T15:55:04.721Z,27.37
2018-12-17T15:57:33.109Z,26.27
2018-12-17T16:00:01.502Z,26.00
2018-12-17T16:02:29.876Z,28.27
2018-12-17T16:04:58.319Z,27.40
2018-12-17T16:07:26.653Z,28.43
2018-12-17T16:09:56.310Z,27.77
2018-12-17T16:12:25.003Z,26.93
2018-12-17T16:14:53.370Z,26.30
2018-12-17T16:17:21.705Z,27.77
2018-12-17T16:19:50.048Z,23.17
2018-12-17T16:22:18.371Z,26.10
2018-12-17T16:24:46.928Z,28.73
2018-12-17T16:27:19.329Z,26.97
2018-12-17T16:29:45.866Z,28.43
2018-12-17T16:32:14.171Z,27.20
2018-12-17T16:37:05.540Z,25.10
2018-12-17T16:39:33.963Z,25.13
2018-12-17T16:42:02.593Z,25.10
2018-12-17T16:44:30.981Z,24.27
2018-12-17T16:46:59.906Z,25.73
2018-12-17T16:49:28.292Z,24.90
2018-12-17T16:51:56.729Z,24.97
2018-12-17T16:54:25.265Z,24.93
2018-12-17T16:56:53.685Z,25.00
2018-12-17T16:59:22.047Z,23.73
2018-12-17T17:01:50.428Z,26.33
2018-12-17T17:04:18.800Z,25.43
2018-12-17T17:06:47.173Z,25.40
2018-12-17T17:09:15.459Z,24.00
2018-12-17T17:11:43.774Z,23.43
2018-12-17T17:14:12.138Z,24.60
2018-12-17T17:16:40.494Z,25.67
2018-12-17T17:19:08.960Z,24.67
2018-12-17T17:21:37.250Z,24.23
2018-12-17T17:24:05.846Z,25.37
2018-12-17T17:26:34.973Z,25.33
2018-12-17T17:29:03.445Z,25.00
2018-12-17T17:31:32.069Z,24.73
2018-12-17T17:34:00.717Z,23.67
2018-12-17T17:36:31.193Z,24.13
2018-12-17T17:38:59.499Z,24.43
2018-12-17T17:41:27.865Z,25.13
2018-12-17T17:43:56.178Z,24.43
2018-12-17T17:46:25.096Z,25.23
2018-12-17T17:48:53.504Z,25.80
2018-12-17T17:51:21.934Z,28.03
2018-12-17T17:53:50.274Z,25.90
2018-12-17T17:56:18.669Z,26.80
2018-12-17T17:58:47.108Z,30.70
2018-12-17T18:01:15.490Z,25.57
2018-12-17T18:03:44.064Z,24.90
2018-12-17T18:06:16.245Z,27.07
2018-12-17T18:08:42.785Z,26.17
2018-12-17T18:11:11.184Z,24.93
2018-12-17T18:13:39.558Z,26.10
2018-12-17T18:16:08.041Z,26.53
2018-12-17T18:18:36.437Z,24.60
2018-12-17T18:21:04.982Z,25.23
2018-12-17T18:23:33.333Z,24.20
2018-12-17T18:26:01.608Z,25.53
2018-12-17T18:28:29.900Z,24.90
2018-12-17T18:30:59.166Z,24.43
2018-12-17T18:33:27.481Z,24.37
2018-12-17T18:35:55.926Z,24.87
2018-12-17T18:38:24.270Z,24.93
2018-12-17T18:40:53.352Z,27.53
2018-12-17T18:43:21.660Z,26.00
2018-12-17T18:45:50.017Z,25.93
2018-12-17T18:48:18.501Z,24.77
2018-12-17T18:50:46.793Z,26.07
2018-12-17T18:53:15.781Z,25.27
2018-12-17T18:55:44.149Z,25.53
2018-12-17T18:58:13.091Z,25.07
2018-12-17T19:00:41.404Z,26.83
2018-12-17T19:03:09.720Z,26.83
2018-12-17T19:05:38.011Z,26.27
2018-12-17T19:08:06.988Z,28.10
2018-12-17T19:10:41.241Z,27.37
2018-12-17T19:13:09.570Z,25.73
2018-12-17T19:15:38.005Z,26.57
2018-12-17T19:18:06.331Z,25.30
2018-12-17T19:20:34.685Z,25.90
2018-12-17T19:23:03.029Z,24.73
2018-12-17T19:25:31.365Z,24.90
2018-12-17T19:27:59.685Z,25.37
2018-12-17T19:30:28.038Z,25.23
2018-12-17T19:32:56.387Z,24.57
2018-12-17T19:35:24.761Z,27.87
2018-12-17T19:37:53.093Z,24.60
2018-12-17T19:40:21.533Z,24.57
2018-12-17T19:42:49.833Z,25.77
2018-12-17T19:45:18.303Z,25.13
2018-12-17T19:47:46.632Z,23.67
2018-12-17T19:50:15.081Z,24.07
2018-12-17T19:52:43.424Z,26.30
2018-12-17T19:55:11.711Z,24.53
2018-12-17T19:57:40.050Z,24.57
2018-12-17T20:00:09.753Z,25.63
2018-12-17T20:02:38.219Z,24.77
2018-12-17T20:05:06.567Z,25.37
2018-12-17T20:07:34.946Z,25.60
2018-12-17T20:10:03.446Z,24.23
2018-12-17T20:12:31.850Z,24.10
2018-12-17T20:15:00.211Z,23.87
2018-12-17T20:17:28.545Z,25.27
2018-12-17T20:19:56.848Z,22.43
2018-12-17T20:22:25.738Z,28.53
2018-12-17T20:24:54.151Z,26.60
2018-12-17T20:27:22.645Z,26.63
2018-12-17T20:29:51.209Z,27.00
2018-12-17T20:32:19.990Z,23.93
2018-12-17T20:34:48.465Z,24.50
2018-12-17T20:37:16.959Z,23.80
2018-12-17T20:39:45.300Z,24.30
2018-12-17T20:42:13.632Z,25.03
2018-12-17T20:44:42.250Z,24.30
2018-12-17T20:47:10.552Z,24.40
2018-12-17T20:49:38.978Z,23.53
2018-12-17T20:52:07.348Z,24.73
2018-12-17T20:57:08.405Z,24.50
2018-12-17T20:59:39.168Z,25.07
2018-12-17T21:02:07.554Z,25.67
2018-12-17T21:04:36.026Z,25.30
2018-12-17T21:07:04.415Z,25.67
2018-12-17T21:09:32.845Z,25.30
2018-12-17T21:12:01.231Z,25.00
2018-12-17T21:14:29.562Z,24.60
2018-12-17T21:16:57.864Z,23.43
2018-12-17T21:19:26.452Z,23.37
2018-12-17T21:21:56.121Z,25.33
2018-12-17T21:24:24.429Z,25.07
2018-12-17T21:26:55.070Z,24.17
2018-12-17T21:29:23.485Z,24.27
2018-12-17T21:31:53.412Z,24.73
2018-12-17T21:34:22.900Z,25.00
2018-12-17T21:36:51.278Z,24.90
2018-12-17T21:39:20.169Z,25.07
2018-12-17T21:41:48.858Z,23.30
2018-12-17T21:44:17.178Z,22.97
2018-12-17T21:46:46.040Z,24.57
2018-12-17T21:49:14.483Z,23.40
2018-12-17T21:51:44.546Z,23.67
2018-12-17T21:54:12.872Z,23.67
2018-12-17T21:56:41.702Z,22.73
2018-12-17T21:59:11.513Z,23.20
2018-12-17T22:01:39.947Z,23.63
2018-12-17T22:04:08.420Z,24.10
2018-12-17T22:06:36.996Z,25.27
2018-12-17T22:09:07.821Z,22.83
2018-12-17T22:11:36.416Z,22.93
2018-12-17T22:14:05.011Z,22.27
2018-12-17T22:16:33.375Z,21.77
2018-12-17T22:19:02.090Z,22.57
2018-12-17T22:21:30.613Z,23.63
2018-12-17T22:23:59.220Z,23.40
2018-12-17T22:26:29.352Z,22.73
2018-12-17T22:28:58.129Z,22.40
2018-12-17T22:31:26.492Z,23.03
2018-12-17T22:33:54.921Z,23.00
2018-12-17T22:36:23.681Z,23.63
2018-12-17T22:38:51.972Z,22.50
2018-12-17T22:41:20.538Z,23.47
2018-12-17T22:43:49.490Z,22.00
2018-12-17T22:46:17.921Z,24.20
2018-12-17T22:48:46.245Z,23.37
2018-12-17T22:51:15.510Z,23.33
2018-12-17T22:53:43.910Z,23.23
2018-12-17T22:56:12.225Z,23.60
2018-12-17T22:58:42.506Z,24.27
2018-12-17T23:01:11.122Z,22.37
2018-12-17T23:03:39.392Z,22.80
2018-12-17T23:06:07.896Z,21.97
2018-12-17T23:08:39.285Z,23.63
2018-12-17T23:11:19.132Z,23.73
2018-12-17T23:13:58.711Z,22.60
2018-12-17T23:16:38.607Z,23.43
2018-12-17T23:19:05.994Z,22.17
2018-12-17T23:21:34.345Z,22.80
2018-12-17T23:24:02.773Z,23.90
2018-12-17T23:26:31.141Z,22.57
2018-12-17T23:29:00.193Z,24.87
2018-12-17T23:31:28.540Z,23.00
2018-12-17T23:33:56.902Z,24.63
2018-12-17T23:36:25.393Z,22.63
2018-12-17T23:38:53.736Z,23.23
2018-12-17T23:41:22.079Z,22.77
2018-12-17T23:43:50.523Z,22.17
2018-12-17T23:46:19.066Z,22.30
2018-12-17T23:48:47.457Z,23.33
2018-12-17T23:51:16.000Z,23.00
2018-12-17T23:53:44.356Z,22.57
2018-12-17T23:56:13.398Z,22.27
2018-12-17T23:58:41.738Z,23.13
